sensor_id;sensor_type;location;lat;lon;timestamp;pressure;altitude;pressure_sealevel;temperature;humidity
70314;BME280;57725;47.526;18.986;2022-08-11T00:01:26;100303.50;;;24.35;59.27
70314;BME280;57725;47.526;18.986;2022-08-11T00:03:58;100314.19;;;24.35;58.95
70314;BME280;57725;47.526;18.986;2022-08-11T00:06:28;100298.00;;;24.36;59.03
70314;BME280;57725;47.526;18.986;2022-08-11T00:08:54;100297.34;;;24.34;58.75
70314;BME280;57725;47.526;18.986;2022-08-11T00:11:21;100301.00;;;24.33;59.10
70314;BME280;57725;47.526;18.986;2022-08-11T00:13:55;100301.13;;;24.32;59.30
70314;BME280;57725;47.526;18.986;2022-08-11T00:16:22;100305.50;;;24.33;59.20
70314;BME280;57725;47.526;18.986;2022-08-11T00:18:53;100292.97;;;24.33;59.19
70314;BME280;57725;47.526;18.986;2022-08-11T00:21:25;100290.44;;;24.32;59.00
70314;BME280;57725;47.526;18.986;2022-08-11T00:23:58;100287.91;;;24.30;59.16
70314;BME280;57725;47.526;18.986;2022-08-11T00:26:27;100291.56;;;24.29;59.04
70314;BME280;57725;47.526;18.986;2022-08-11T00:28:54;100293.25;;;24.30;59.12
70314;BME280;57725;47.526;18.986;2022-08-11T00:31:30;100288.19;;;24.27;59.45
70314;BME280;57725;47.526;18.986;2022-08-11T00:33:57;100292.56;;;24.28;59.35
70314;BME280;57725;47.526;18.986;2022-08-11T00:36:37;100294.38;;;24.28;58.96
70314;BME280;57725;47.526;18.986;2022-08-11T00:39:05;100293.53;;;24.27;59.22
70314;BME280;57725;47.526;18.986;2022-08-11T00:44:29;100284.81;;;24.25;59.55
70314;BME280;57725;47.526;18.986;2022-08-11T00:52:32;100285.13;;;24.22;59.33
70314;BME280;57725;47.526;18.986;2022-08-11T01:09:48;100290.84;;;24.17;59.36
70314;BME280;57725;47.526;18.986;2022-08-11T01:12:38;100285.91;;;24.13;59.63
70314;BME280;57725;47.526;18.986;2022-08-11T01:35:29;100280.19;;;24.08;59.67
70314;BME280;57725;47.526;18.986;2022-08-11T01:56:05;100272.84;;;24.00;59.56
70314;BME280;57725;47.526;18.986;2022-08-11T02:04:28;100260.94;;;23.95;59.91
70314;BME280;57725;47.526;18.986;2022-08-11T02:23:16;100252.22;;;23.93;59.79
70314;BME280;57725;47.526;18.986;2022-08-11T02:29:00;100262.19;;;23.91;59.68
70314;BME280;57725;47.526;18.986;2022-08-11T02:37:02;100255.31;;;23.88;59.77
70314;BME280;57725;47.526;18.986;2022-08-11T02:39:45;100252.78;;;23.87;59.99
70314;BME280;57725;47.526;18.986;2022-08-11T02:57:19;100243.66;;;23.79;60.05
70314;BME280;57725;47.526;18.986;2022-08-11T02:59:56;100245.34;;;23.80;60.00
70314;BME280;57725;47.526;18.986;2022-08-11T03:02:52;100245.34;;;23.80;59.74
70314;BME280;57725;47.526;18.986;2022-08-11T03:05:28;100245.34;;;23.80;59.82
70314;BME280;57725;47.526;18.986;2022-08-11T03:14:13;100242.81;;;23.79;59.75
70314;BME280;57725;47.526;18.986;2022-08-11T03:17:13;100244.75;;;23.77;59.77
70314;BME280;57725;47.526;18.986;2022-08-11T03:20:10;100242.41;;;23.74;59.99
70314;BME280;57725;47.526;18.986;2022-08-11T03:31:32;100242.66;;;23.71;60.03
70314;BME280;57725;47.526;18.986;2022-08-11T03:34:03;100240.84;;;23.71;59.90
70314;BME280;57725;47.526;18.986;2022-08-11T03:36:44;100242.53;;;23.72;59.99
70314;BME280;57725;47.526;18.986;2022-08-11T03:45:25;100247.16;;;23.70;60.03
70314;BME280;57725;47.526;18.986;2022-08-11T03:48:08;100244.75;;;23.67;60.28
70314;BME280;57725;47.526;18.986;2022-08-11T04:10:35;100250.94;;;23.68;60.04
70314;BME280;57725;47.526;18.986;2022-08-11T04:16:23;100262.59;;;23.67;60.06
70314;BME280;57725;47.526;18.986;2022-08-11T04:25:06;100256.72;;;23.63;60.17
70314;BME280;57725;47.526;18.986;2022-08-11T04:27:58;100255.75;;;23.64;60.26
70314;BME280;57725;47.526;18.986;2022-08-11T04:33:34;100261.50;;;23.60;60.10
70314;BME280;57725;47.526;18.986;2022-08-11T04:36:26;100269.50;;;23.60;60.06
70314;BME280;57725;47.526;18.986;2022-08-11T04:57:40;100268.22;;;23.54;60.15
70314;BME280;57725;47.526;18.986;2022-08-11T05:00:29;100264.72;;;23.54;60.35
70314;BME280;57725;47.526;18.986;2022-08-11T05:03:43;100261.75;;;23.57;60.21
70314;BME280;57725;47.526;18.986;2022-08-11T05:06:26;100263.88;;;23.53;60.16
70314;BME280;57725;47.526;18.986;2022-08-11T05:12:08;100264.03;;;23.52;60.26
70314;BME280;57725;47.526;18.986;2022-08-11T05:14:35;100268.50;;;23.51;60.42
70314;BME280;57725;47.526;18.986;2022-08-11T05:20:24;100267.66;;;23.51;60.28
70314;BME280;57725;47.526;18.986;2022-08-11T05:23:10;100273.94;;;23.50;60.33
70314;BME280;57725;47.526;18.986;2022-08-11T05:25:57;100277.88;;;23.45;60.37
70314;BME280;57725;47.526;18.986;2022-08-11T05:28:50;100281.25;;;23.47;60.52
70314;BME280;57725;47.526;18.986;2022-08-11T05:31:38;100287.56;;;23.46;60.55
70314;BME280;57725;47.526;18.986;2022-08-11T05:37:30;100280.00;;;23.42;60.41
70314;BME280;57725;47.526;18.986;2022-08-11T05:40:13;100285.31;;;23.42;60.58
70314;BME280;57725;47.526;18.986;2022-08-11T05:43:00;100287.28;;;23.40;60.61
70314;BME280;57725;47.526;18.986;2022-08-11T05:45:58;100290.78;;;23.40;60.49
70314;BME280;57725;47.526;18.986;2022-08-11T05:48:43;100291.47;;;23.42;60.54
70314;BME280;57725;47.526;18.986;2022-08-11T05:51:39;100287.81;;;23.43;60.54
70314;BME280;57725;47.526;18.986;2022-08-11T05:54:26;100282.78;;;23.40;60.38
70314;BME280;57725;47.526;18.986;2022-08-11T05:57:31;100283.47;;;23.42;60.48
70314;BME280;57725;47.526;18.986;2022-08-11T06:00:04;100290.94;;;23.39;60.63
70314;BME280;57725;47.526;18.986;2022-08-11T06:02:39;100293.72;;;23.37;60.51
70314;BME280;57725;47.526;18.986;2022-08-11T06:05:08;100297.25;;;23.38;60.52
70314;BME280;57725;47.526;18.986;2022-08-11T06:07:36;100287.41;;;23.38;60.56
70314;BME280;57725;47.526;18.986;2022-08-11T06:10:03;100280.38;;;23.37;60.49
70314;BME280;57725;47.526;18.986;2022-08-11T06:12:30;100279.69;;;23.35;60.57
70314;BME280;57725;47.526;18.986;2022-08-11T06:15:02;100291.78;;;23.39;60.29
70314;BME280;57725;47.526;18.986;2022-08-11T06:17:30;100289.22;;;23.38;60.62
70314;BME280;57725;47.526;18.986;2022-08-11T06:20:02;100287.41;;;23.38;60.29
70314;BME280;57725;47.526;18.986;2022-08-11T06:22:29;100284.88;;;23.37;60.33
70314;BME280;57725;47.526;18.986;2022-08-11T06:24:57;100281.22;;;23.38;60.36
70314;BME280;57725;47.526;18.986;2022-08-11T06:27:25;100282.06;;;23.38;60.65
70314;BME280;57725;47.526;18.986;2022-08-11T06:29:54;100284.31;;;23.43;60.50
70314;BME280;57725;47.526;18.986;2022-08-11T06:32:29;100279.41;;;23.48;60.46
70314;BME280;57725;47.526;18.986;2022-08-11T06:38:14;100280.03;;;23.52;60.15
70314;BME280;57725;47.526;18.986;2022-08-11T06:41:00;100278.06;;;23.54;60.17
70314;BME280;57725;47.526;18.986;2022-08-11T06:46:49;100273.28;;;23.57;60.19
70314;BME280;57725;47.526;18.986;2022-08-11T06:49:18;100281.00;;;23.60;60.35
70314;BME280;57725;47.526;18.986;2022-08-11T06:52:10;100280.88;;;23.62;60.10
70314;BME280;57725;47.526;18.986;2022-08-11T06:54:41;100271.91;;;23.63;60.24
70314;BME280;57725;47.526;18.986;2022-08-11T06:57:12;100279.06;;;23.62;60.41
70314;BME280;57725;47.526;18.986;2022-08-11T06:59:58;100266.41;;;23.64;60.44
70314;BME280;57725;47.526;18.986;2022-08-11T07:05:28;100267.25;;;23.65;60.49
70314;BME280;57725;47.526;18.986;2022-08-11T07:11:26;100270.47;;;23.68;60.81
70314;BME280;57725;47.526;18.986;2022-08-11T07:14:31;100273.16;;;23.68;61.08
70314;BME280;57725;47.526;18.986;2022-08-11T07:17:25;100271.31;;;23.69;60.79
70314;BME280;57725;47.526;18.986;2022-08-11T07:19:57;100267.81;;;23.68;60.77
70314;BME280;57725;47.526;18.986;2022-08-11T07:22:50;100266.81;;;23.69;60.64
70314;BME280;57725;47.526;18.986;2022-08-11T07:25:40;100276.66;;;23.69;60.32
70314;BME280;57725;47.526;18.986;2022-08-11T07:28:29;100276.94;;;23.66;60.26
70314;BME280;57725;47.526;18.986;2022-08-11T07:31:42;100274.25;;;23.66;60.34
70314;BME280;57725;47.526;18.986;2022-08-11T07:36:55;100276.94;;;23.66;60.54
70314;BME280;57725;47.526;18.986;2022-08-11T07:39:26;100264.88;;;23.62;60.33
70314;BME280;57725;47.526;18.986;2022-08-11T07:41:55;100273.41;;;23.65;60.25
70314;BME280;57725;47.526;18.986;2022-08-11T07:44:23;100274.44;;;23.64;60.22
70314;BME280;57725;47.526;18.986;2022-08-11T07:46:54;100270.91;;;23.64;60.50
70314;BME280;57725;47.526;18.986;2022-08-11T07:49:43;100270.34;;;23.60;60.17
70314;BME280;57725;47.526;18.986;2022-08-11T07:52:32;100280.03;;;23.61;60.16
70314;BME280;57725;47.526;18.986;2022-08-11T07:55:07;100275.69;;;23.60;60.24
70314;BME280;57725;47.526;18.986;2022-08-11T07:57:33;100282.56;;;23.63;60.37
70314;BME280;57725;47.526;18.986;2022-08-11T08:00:18;100264.72;;;23.63;60.09
70314;BME280;57725;47.526;18.986;2022-08-11T08:03:04;100274.69;;;23.61;59.74
70314;BME280;57725;47.526;18.986;2022-08-11T08:05:49;100266.69;;;23.61;60.01
70314;BME280;57725;47.526;18.986;2022-08-11T08:08:36;100269.50;;;23.60;60.00
70314;BME280;57725;47.526;18.986;2022-08-11T08:11:23;100263.19;;;23.61;60.05
70314;BME280;57725;47.526;18.986;2022-08-11T08:14:08;100269.22;;;23.63;60.03
70314;BME280;57725;47.526;18.986;2022-08-11T08:16:53;100272.75;;;23.63;60.05
70314;BME280;57725;47.526;18.986;2022-08-11T08:19:39;100260.25;;;23.64;59.93
70314;BME280;57725;47.526;18.986;2022-08-11T08:22:14;100262.06;;;23.63;59.90
70314;BME280;57725;47.526;18.986;2022-08-11T08:24:42;100260.25;;;23.64;59.64
70314;BME280;57725;47.526;18.986;2022-08-11T08:27:09;100254.91;;;23.64;59.83
70314;BME280;57725;47.526;18.986;2022-08-11T08:29:39;100263.59;;;23.66;59.95
70314;BME280;57725;47.526;18.986;2022-08-11T08:32:25;100250.41;;;23.64;60.09
70314;BME280;57725;47.526;18.986;2022-08-11T08:34:53;100249.41;;;23.65;59.88
70314;BME280;57725;47.526;18.986;2022-08-11T08:37:23;100256.41;;;23.66;59.91
70314;BME280;57725;47.526;18.986;2022-08-11T08:39:53;100256.28;;;23.68;60.38
70314;BME280;57725;47.526;18.986;2022-08-11T08:42:27;100248.28;;;23.68;59.91
70314;BME280;57725;47.526;18.986;2022-08-11T08:47:28;100237.34;;;23.71;59.77
70314;BME280;57725;47.526;18.986;2022-08-11T08:50:00;100233.81;;;23.70;59.56
70314;BME280;57725;47.526;18.986;2022-08-11T08:52:36;100228.47;;;23.70;59.79
70314;BME280;57725;47.526;18.986;2022-08-11T08:55:08;100235.50;;;23.71;59.71
70314;BME280;57725;47.526;18.986;2022-08-11T08:57:40;100228.34;;;23.72;59.60
70314;BME280;57725;47.526;18.986;2022-08-11T09:00:08;100227.38;;;23.73;59.91
70314;BME280;57725;47.526;18.986;2022-08-11T09:02:38;100216.56;;;23.74;59.65
70314;BME280;57725;47.526;18.986;2022-08-11T09:05:08;100219.22;;;23.74;59.71
70314;BME280;57725;47.526;18.986;2022-08-11T09:07:36;100217.41;;;23.75;59.84
70314;BME280;57725;47.526;18.986;2022-08-11T09:10:07;100214.72;;;23.75;59.62
70314;BME280;57725;47.526;18.986;2022-08-11T09:12:38;100209.38;;;23.75;59.51
70314;BME280;57725;47.526;18.986;2022-08-11T09:15:11;100214.59;;;23.76;59.44
70314;BME280;57725;47.526;18.986;2022-08-11T09:17:45;100206.41;;;23.78;59.34
70314;BME280;57725;47.526;18.986;2022-08-11T09:20:21;100194.75;;;23.79;59.52
70314;BME280;57725;47.526;18.986;2022-08-11T09:22:51;100199.09;;;23.80;59.53
70314;BME280;57725;47.526;18.986;2022-08-11T09:25:39;100200.94;;;23.79;59.74
70314;BME280;57725;47.526;18.986;2022-08-11T09:28:26;100191.81;;;23.82;59.50
70314;BME280;57725;47.526;18.986;2022-08-11T09:30:56;100194.34;;;23.83;59.71
70314;BME280;57725;47.526;18.986;2022-08-11T09:33:27;100193.34;;;23.85;59.49
70314;BME280;57725;47.526;18.986;2022-08-11T09:35:53;100189.69;;;23.86;59.43
70314;BME280;57725;47.526;18.986;2022-08-11T09:38:23;100187.88;;;23.86;59.57
70314;BME280;57725;47.526;18.986;2022-08-11T09:41:08;100184.06;;;23.89;59.18
70314;BME280;57725;47.526;18.986;2022-08-11T09:43:44;100181.25;;;23.90;59.23
70314;BME280;57725;47.526;18.986;2022-08-11T09:46:29;100182.94;;;23.91;59.33
70314;BME280;57725;47.526;18.986;2022-08-11T09:49:00;100188.97;;;23.93;59.24
70314;BME280;57725;47.526;18.986;2022-08-11T09:51:30;100193.34;;;23.94;59.26
70314;BME280;57725;47.526;18.986;2022-08-11T09:53:58;100179.84;;;23.96;58.72
70314;BME280;57725;47.526;18.986;2022-08-11T09:56:28;100177.88;;;23.98;58.99
70314;BME280;57725;47.526;18.986;2022-08-11T09:59:12;100177.75;;;23.99;58.93
70314;BME280;57725;47.526;18.986;2022-08-11T10:01:44;100177.75;;;23.99;58.82
70314;BME280;57725;47.526;18.986;2022-08-11T10:04:12;100172.22;;;24.01;59.00
70314;BME280;57725;47.526;18.986;2022-08-11T10:06:42;100167.91;;;24.00;58.72
70314;BME280;57725;47.526;18.986;2022-08-11T10:10:00;100167.59;;;24.03;58.72
70314;BME280;57725;47.526;18.986;2022-08-11T10:12:33;100162.25;;;24.03;58.65
70314;BME280;57725;47.526;18.986;2022-08-11T10:15:06;100166.59;;;24.04;58.73
70314;BME280;57725;47.526;18.986;2022-08-11T10:17:57;100163.66;;;24.07;58.33
70314;BME280;57725;47.526;18.986;2022-08-11T10:20:44;100162.66;;;24.08;58.82
70314;BME280;57725;47.526;18.986;2022-08-11T10:23:14;100159.00;;;24.09;58.79
70314;BME280;57725;47.526;18.986;2022-08-11T10:25:58;100148.19;;;24.10;58.47
70314;BME280;57725;47.526;18.986;2022-08-11T10:28:42;100155.88;;;24.13;58.26
70314;BME280;57725;47.526;18.986;2022-08-11T10:31:13;100154.91;;;24.14;58.29
70314;BME280;57725;47.526;18.986;2022-08-11T10:34:00;100153.78;;;24.17;58.26
70314;BME280;57725;47.526;18.986;2022-08-11T10:36:32;100147.44;;;24.18;57.87
70314;BME280;57725;47.526;18.986;2022-08-11T10:38:59;100139.28;;;24.19;58.00
70314;BME280;57725;47.526;18.986;2022-08-11T10:41:28;100135.63;;;24.21;58.16
70314;BME280;57725;47.526;18.986;2022-08-11T10:44:13;100137.19;;;24.23;57.84
70314;BME280;57725;47.526;18.986;2022-08-11T10:46:43;100136.19;;;24.24;57.90
70314;BME280;57725;47.526;18.986;2022-08-11T10:49:27;100135.91;;;24.27;57.98
70314;BME280;57725;47.526;18.986;2022-08-11T10:51:55;100121.56;;;24.28;58.06
70314;BME280;57725;47.526;18.986;2022-08-11T10:54:41;100129.59;;;24.28;58.21
70314;BME280;57725;47.526;18.986;2022-08-11T10:57:27;100123.13;;;24.31;57.90
70314;BME280;57725;47.526;18.986;2022-08-11T11:00:11;100121.28;;;24.31;57.67
70314;BME280;57725;47.526;18.986;2022-08-11T11:02:40;100105.13;;;24.33;58.03
70314;BME280;57725;47.526;18.986;2022-08-11T11:05:21;100094.28;;;24.34;57.90
70314;BME280;57725;47.526;18.986;2022-08-11T11:07:56;100105.63;;;24.36;57.84
70314;BME280;57725;47.526;18.986;2022-08-11T11:10:30;100099.16;;;24.39;57.92
70314;BME280;57725;47.526;18.986;2022-08-11T11:12:56;100104.34;;;24.40;57.49
70314;BME280;57725;47.526;18.986;2022-08-11T11:15:47;100094.50;;;24.41;57.44
70314;BME280;57725;47.526;18.986;2022-08-11T11:18:35;100092.53;;;24.43;57.81
70314;BME280;57725;47.526;18.986;2022-08-11T11:21:06;100085.22;;;24.45;57.68
70314;BME280;57725;47.526;18.986;2022-08-11T11:29:02;100083.91;;;24.49;57.67
70314;BME280;57725;47.526;18.986;2022-08-11T11:37:14;100078.81;;;24.56;57.59
70314;BME280;57725;47.526;18.986;2022-08-11T11:39:44;100077.00;;;24.56;57.53
70314;BME280;57725;47.526;18.986;2022-08-11T11:42:10;100076.81;;;24.58;57.49
70314;BME280;57725;47.526;18.986;2022-08-11T11:44:42;100079.34;;;24.59;57.30
70314;BME280;57725;47.526;18.986;2022-08-11T11:47:17;100057.97;;;24.59;57.76
70314;BME280;57725;47.526;18.986;2022-08-11T11:49:48;100065.00;;;24.60;57.64
70314;BME280;57725;47.526;18.986;2022-08-11T11:52:15;100070.19;;;24.62;57.18
70314;BME280;57725;47.526;18.986;2022-08-11T11:54:44;100061.19;;;24.63;57.18
70314;BME280;57725;47.526;18.986;2022-08-11T11:57:16;100065.41;;;24.65;56.92
70314;BME280;57725;47.526;18.986;2022-08-11T12:00:07;100062.72;;;24.65;56.65
70314;BME280;57725;47.526;18.986;2022-08-11T12:02:51;100068.91;;;24.66;56.68
70314;BME280;57725;47.526;18.986;2022-08-11T12:05:20;100070.59;;;24.67;56.36
70314;BME280;57725;47.526;18.986;2022-08-11T12:07:46;100065.09;;;24.68;56.84
70314;BME280;57725;47.526;18.986;2022-08-11T12:10:30;100067.78;;;24.68;56.63
70314;BME280;57725;47.526;18.986;2022-08-11T12:13:01;100067.59;;;24.70;56.61
70314;BME280;57725;47.526;18.986;2022-08-11T12:15:46;100053.25;;;24.71;56.59
70314;BME280;57725;47.526;18.986;2022-08-11T12:18:15;100058.44;;;24.72;56.62
70314;BME280;57725;47.526;18.986;2022-08-11T12:20:42;100044.22;;;24.72;56.58
70314;BME280;57725;47.526;18.986;2022-08-11T12:23:09;100049.44;;;24.73;56.82
70314;BME280;57725;47.526;18.986;2022-08-11T12:25:53;100064.47;;;24.74;56.57
70314;BME280;57725;47.526;18.986;2022-08-11T12:28:40;100042.09;;;24.75;56.98
70314;BME280;57725;47.526;18.986;2022-08-11T12:31:06;100033.09;;;24.76;56.54
70314;BME280;57725;47.526;18.986;2022-08-11T12:33:36;100040.97;;;24.78;56.47
70314;BME280;57725;47.526;18.986;2022-08-11T12:36:10;100042.66;;;24.79;56.80
70314;BME280;57725;47.526;18.986;2022-08-11T12:38:46;100041.66;;;24.80;56.90
70314;BME280;57725;47.526;18.986;2022-08-11T12:41:13;100037.97;;;24.81;56.36
70314;BME280;57725;47.526;18.986;2022-08-11T12:43:59;100035.28;;;24.81;56.43
70314;BME280;57725;47.526;18.986;2022-08-11T12:46:44;100026.28;;;24.82;56.22
70314;BME280;57725;47.526;18.986;2022-08-11T12:49:17;100024.31;;;24.84;55.99
70314;BME280;57725;47.526;18.986;2022-08-11T12:52:08;100019.78;;;24.84;56.56
70314;BME280;57725;47.526;18.986;2022-08-11T13:00:25;100016.81;;;24.87;56.34
70314;BME280;57725;47.526;18.986;2022-08-11T13:03:11;100015.84;;;24.88;56.39
70314;BME280;57725;47.526;18.986;2022-08-11T13:05:58;100021.88;;;24.90;56.69
70314;BME280;57725;47.526;18.986;2022-08-11T13:08:28;100006.81;;;24.89;56.36
70314;BME280;57725;47.526;18.986;2022-08-11T13:10:57;100003.16;;;24.90;56.42
70314;BME280;57725;47.526;18.986;2022-08-11T13:13:47;100016.38;;;24.92;56.51
70314;BME280;57725;47.526;18.986;2022-08-11T13:16:16;99999.50;;;24.92;56.91
70314;BME280;57725;47.526;18.986;2022-08-11T13:18:42;100001.16;;;24.93;56.46
70314;BME280;57725;47.526;18.986;2022-08-11T13:21:09;99999.34;;;24.93;56.51
70314;BME280;57725;47.526;18.986;2022-08-11T13:23:37;99996.66;;;24.93;56.44
70314;BME280;57725;47.526;18.986;2022-08-11T13:26:06;99990.47;;;24.93;56.32
70314;BME280;57725;47.526;18.986;2022-08-11T13:28:38;100006.38;;;24.94;56.80
70314;BME280;57725;47.526;18.986;2022-08-11T13:31:05;100003.53;;;24.96;56.86
70314;BME280;57725;47.526;18.986;2022-08-11T13:33:49;100001.72;;;24.96;56.68
70314;BME280;57725;47.526;18.986;2022-08-11T13:36:19;99991.84;;;24.97;56.90
70314;BME280;57725;47.526;18.986;2022-08-11T13:38:48;99993.69;;;24.96;56.85
70314;BME280;57725;47.526;18.986;2022-08-11T13:41:14;99997.06;;;24.98;56.91
70314;BME280;57725;47.526;18.986;2022-08-11T13:43:59;99997.91;;;24.99;56.70
70314;BME280;57725;47.526;18.986;2022-08-11T13:46:26;99991.72;;;24.98;56.80
70314;BME280;57725;47.526;18.986;2022-08-11T13:48:55;99987.19;;;24.99;56.21
70314;BME280;57725;47.526;18.986;2022-08-11T13:51:25;99986.22;;;25.00;56.17
70314;BME280;57725;47.526;18.986;2022-08-11T13:54:05;99978.19;;;25.00;56.11
70314;BME280;57725;47.526;18.986;2022-08-11T13:56:32;99974.53;;;25.01;56.46
70314;BME280;57725;47.526;18.986;2022-08-11T13:59:00;99973.53;;;25.02;56.56
70314;BME280;57725;47.526;18.986;2022-08-11T14:01:40;99978.72;;;25.03;56.60
70314;BME280;57725;47.526;18.986;2022-08-11T14:04:15;99977.88;;;25.03;56.71
70314;BME280;57725;47.526;18.986;2022-08-11T14:06:50;99973.38;;;25.03;56.46
70314;BME280;57725;47.526;18.986;2022-08-11T14:09:25;99972.19;;;25.06;56.52
70314;BME280;57725;47.526;18.986;2022-08-11T14:11:55;99972.19;;;25.06;56.58
70314;BME280;57725;47.526;18.986;2022-08-11T14:14:40;99971.34;;;25.05;56.59
70314;BME280;57725;47.526;18.986;2022-08-11T14:17:07;99967.69;;;25.06;56.65
70314;BME280;57725;47.526;18.986;2022-08-11T14:19:36;99965.03;;;25.06;56.67
70314;BME280;57725;47.526;18.986;2022-08-11T14:22:06;99965.84;;;25.07;57.05
70314;BME280;57725;47.526;18.986;2022-08-11T14:24:40;99964.88;;;25.08;57.02
70314;BME280;57725;47.526;18.986;2022-08-11T14:27:08;99969.22;;;25.09;56.92
70314;BME280;57725;47.526;18.986;2022-08-11T14:29:36;99962.03;;;25.09;56.77
70314;BME280;57725;47.526;18.986;2022-08-11T14:32:05;99969.06;;;25.10;57.18
70314;BME280;57725;47.526;18.986;2022-08-11T14:34:32;99968.06;;;25.11;57.08
70314;BME280;57725;47.526;18.986;2022-08-11T14:37:18;99966.25;;;25.12;57.29
70314;BME280;57725;47.526;18.986;2022-08-11T14:39:50;99965.41;;;25.11;56.78
70314;BME280;57725;47.526;18.986;2022-08-11T14:42:19;99971.44;;;25.13;57.08
70314;BME280;57725;47.526;18.986;2022-08-11T14:45:09;99964.41;;;25.12;57.25
70314;BME280;57725;47.526;18.986;2022-08-11T14:48:04;99959.91;;;25.13;56.84
70314;BME280;57725;47.526;18.986;2022-08-11T14:50:35;99957.22;;;25.13;57.15
70314;BME280;57725;47.526;18.986;2022-08-11T14:53:04;99950.03;;;25.13;57.14
70314;BME280;57725;47.526;18.986;2022-08-11T14:55:38;99960.75;;;25.13;57.04
70314;BME280;57725;47.526;18.986;2022-08-11T14:58:25;99963.25;;;25.15;57.14
70314;BME280;57725;47.526;18.986;2022-08-11T15:00:56;99958.72;;;25.15;57.00
70314;BME280;57725;47.526;18.986;2022-08-11T15:03:23;99960.59;;;25.15;57.23
70314;BME280;57725;47.526;18.986;2022-08-11T15:05:53;99957.91;;;25.15;57.25
70314;BME280;57725;47.526;18.986;2022-08-11T15:08:20;99956.22;;;25.14;57.24
70314;BME280;57725;47.526;18.986;2022-08-11T15:11:08;99953.38;;;25.15;56.93
70314;BME280;57725;47.526;18.986;2022-08-11T15:13:55;99956.03;;;25.15;57.00
70314;BME280;57725;47.526;18.986;2022-08-11T15:16:26;99953.38;;;25.15;56.62
70314;BME280;57725;47.526;18.986;2022-08-11T15:19:12;99956.75;;;25.17;57.11
70314;BME280;57725;47.526;18.986;2022-08-11T15:21:38;99953.22;;;25.17;57.17
70314;BME280;57725;47.526;18.986;2022-08-11T15:24:22;99958.56;;;25.17;56.68
70314;BME280;57725;47.526;18.986;2022-08-11T15:26:49;99959.41;;;25.17;57.21
70314;BME280;57725;47.526;18.986;2022-08-11T15:29:34;99955.91;;;25.17;56.91
70314;BME280;57725;47.526;18.986;2022-08-11T15:32:19;99951.38;;;25.17;56.74
70314;BME280;57725;47.526;18.986;2022-08-11T15:34:55;99948.72;;;25.17;56.88
70314;BME280;57725;47.526;18.986;2022-08-11T15:37:42;99949.41;;;25.19;57.16
70314;BME280;57725;47.526;18.986;2022-08-11T15:40:17;99946.03;;;25.17;56.84
70314;BME280;57725;47.526;18.986;2022-08-11T15:45:52;99952.91;;;25.20;57.16
70314;BME280;57725;47.526;18.986;2022-08-11T15:50:56;99940.38;;;25.20;57.01
70314;BME280;57725;47.526;18.986;2022-08-11T15:53:52;99942.06;;;25.21;56.87
70314;BME280;57725;47.526;18.986;2022-08-11T15:56:19;99936.72;;;25.21;57.04
70314;BME280;57725;47.526;18.986;2022-08-11T15:58:48;99943.91;;;25.21;56.98
70314;BME280;57725;47.526;18.986;2022-08-11T16:01:36;99938.53;;;25.21;57.26
70314;BME280;57725;47.526;18.986;2022-08-11T16:04:22;99938.53;;;25.21;57.35
70314;BME280;57725;47.526;18.986;2022-08-11T16:07:04;99941.06;;;25.22;56.89
70314;BME280;57725;47.526;18.986;2022-08-11T16:12:27;99936.72;;;25.21;57.16
70314;BME280;57725;47.526;18.986;2022-08-11T16:14:58;99934.88;;;25.22;57.14
70314;BME280;57725;47.526;18.986;2022-08-11T16:18:09;99934.88;;;25.22;57.17
70314;BME280;57725;47.526;18.986;2022-08-11T16:20:35;99932.19;;;25.22;56.74
70314;BME280;57725;47.526;18.986;2022-08-11T16:23:04;99939.38;;;25.21;57.18
70314;BME280;57725;47.526;18.986;2022-08-11T16:25:34;99932.19;;;25.22;57.26
70314;BME280;57725;47.526;18.986;2022-08-11T16:28:05;99936.56;;;25.23;56.93
70314;BME280;57725;47.526;18.986;2022-08-11T16:30:35;99933.03;;;25.22;56.84
70314;BME280;57725;47.526;18.986;2022-08-11T16:33:02;99930.38;;;25.22;57.38
70314;BME280;57725;47.526;18.986;2022-08-11T16:35:31;99921.50;;;25.22;57.16
70314;BME280;57725;47.526;18.986;2022-08-11T16:38:17;99930.38;;;25.22;57.04
70314;BME280;57725;47.526;18.986;2022-08-11T16:41:08;99934.72;;;25.23;57.15
70314;BME280;57725;47.526;18.986;2022-08-11T16:43:43;99938.25;;;25.24;57.13
70314;BME280;57725;47.526;18.986;2022-08-11T16:46:31;99930.38;;;25.22;57.35
70314;BME280;57725;47.526;18.986;2022-08-11T16:49:20;99937.41;;;25.23;57.31
70314;BME280;57725;47.526;18.986;2022-08-11T16:51:49;99933.88;;;25.23;57.15
70314;BME280;57725;47.526;18.986;2022-08-11T16:54:17;99932.03;;;25.23;57.15
70314;BME280;57725;47.526;18.986;2022-08-11T16:56:51;99933.72;;;25.24;57.42
70314;BME280;57725;47.526;18.986;2022-08-11T16:59:29;99941.75;;;25.24;57.16
70314;BME280;57725;47.526;18.986;2022-08-11T17:02:05;99937.25;;;25.25;57.25
70314;BME280;57725;47.526;18.986;2022-08-11T17:04:42;99942.59;;;25.25;57.54
70314;BME280;57725;47.526;18.986;2022-08-11T17:07:29;99938.25;;;25.24;57.51
70314;BME280;57725;47.526;18.986;2022-08-11T17:10:22;99939.91;;;25.25;57.60
70314;BME280;57725;47.526;18.986;2022-08-11T17:13:11;99979.22;;;25.24;57.33
70314;BME280;57725;47.526;18.986;2022-08-11T17:15:40;99976.53;;;25.24;57.32
70314;BME280;57725;47.526;18.986;2022-08-11T17:18:27;99984.56;;;25.24;57.78
70314;BME280;57725;47.526;18.986;2022-08-11T17:21:32;99974.84;;;25.23;57.60
70314;BME280;57725;47.526;18.986;2022-08-11T17:26:31;99977.69;;;25.22;57.02